Time;durP1;ratioP1;P1;durP2;ratioP2;P2;SDS_P1;SDS_P2;PMS_P1;PMS_P2;Temp;Humidity;BMP_temperature;BMP_pressure;BME280_temperature;BME280_humidity;BME280_pressure;Samples;Min_cycle;Max_cycle;Signal;HPM_P1;HPM_P2
2021/12/11 00:02:18;;;;;;;291.10;265.85;;;;;;;-143.39;100.00;64013.03;4980870;28;20487;-79
2021/12/11 00:04:48;;;;;;;270.88;247.07;;;;;;;-143.39;100.00;64013.03;4980357;28;20058;-77
2021/12/11 00:07:18;;;;;;;271.92;248.43;;;;;;;-143.39;100.00;64013.03;4974520;28;20058;-77
2021/12/11 00:09:50;;;;;;;265.45;242.45;;;;;;;-143.39;100.00;64013.03;4983350;28;20121;-80
2021/12/11 00:12:19;;;;;;;;;;;;;;;-143.39;100.00;64013.03;4984894;28;20463;-81
2021/12/11 00:14:51;;;;;;;242.43;221.68;;;;;;;-143.39;100.00;64013.03;4985381;28;19922;-80
2021/12/11 00:17:21;;;;;;;270.83;248.53;;;;;;;-143.39;100.00;64013.03;4979952;28;20138;-79
2021/12/11 00:19:47;;;;;;;223.73;203.52;;;;;;;-143.39;100.00;64013.03;4981196;28;20333;-79
2021/12/11 00:22:17;;;;;;;209.73;190.57;;;;;;;-143.39;100.00;64013.03;4974195;28;20054;-79
2021/12/11 00:24:46;;;;;;;208.48;189.07;;;;;;;-143.39;100.00;64013.03;4980996;28;20558;-78
2021/12/11 00:27:21;;;;;;;236.02;215.73;;;;;;;-143.39;100.00;64013.03;4982004;28;20054;-80
2021/12/11 00:29:48;;;;;;;242.07;221.38;;;;;;;-143.39;100.00;64013.03;4988050;28;20116;-80
2021/12/11 00:32:24;;;;;;;259.08;236.57;;;;;;;-143.39;100.00;64013.03;4980998;28;20046;-79
2021/12/11 00:34:53;;;;;;;228.15;208.90;;;;;;;-143.39;100.00;64013.03;4977484;28;20510;-78
2021/12/11 00:37:22;;;;;;;261.67;240.80;;;;;;;-143.39;100.00;64013.03;4982437;28;20113;-78
2021/12/11 00:39:53;;;;;;;265.88;244.50;;;;;;;-143.39;100.00;64013.03;4979834;28;20047;-81
2021/12/11 00:42:23;;;;;;;263.15;241.85;;;;;;;-143.39;100.00;64013.03;4985652;28;20062;-78
2021/12/11 00:44:52;;;;;;;268.98;246.15;;;;;;;-143.39;100.00;64013.03;4985072;28;20054;-80
2021/12/11 00:47:22;;;;;;;280.38;254.23;;;;;;;-143.39;100.00;64013.03;4984396;28;20400;-79
2021/12/11 00:49:52;;;;;;;343.02;239.55;;;;;;;-143.39;100.00;64013.03;4984336;28;20046;-79
2021/12/11 00:52:27;;;;;;;291.27;263.75;;;;;;;-143.39;100.00;64013.03;4994895;28;20120;-80
2021/12/11 00:54:56;;;;;;;318.70;287.80;;;;;;;-143.39;100.00;64013.03;4988779;28;20133;-79
2021/12/11 00:57:23;;;;;;;355.85;289.77;;;;;;;-143.39;100.00;64013.03;4982206;28;20475;-77
2021/12/11 01:00:00;;;;;;;315.85;283.40;;;;;;;-143.39;100.00;64013.03;4984863;28;20505;-79
2021/12/11 01:02:27;;;;;;;282.23;255.05;;;;;;;-143.39;100.00;64013.03;4984397;28;20464;-79
2021/12/11 01:04:54;;;;;;;310.13;281.40;;;;;;;-143.39;100.00;64013.03;4983038;28;20051;-81
2021/12/11 01:07:27;;;;;;;302.88;274.02;;;;;;;-143.39;100.00;64013.03;4994605;28;20068;-79
2021/12/11 01:10:00;;;;;;;290.02;260.85;;;;;;;-143.39;100.00;64013.03;4985950;28;20046;-78
2021/12/11 01:12:37;;;;;;;303.48;271.80;;;;;;;-143.39;100.00;64013.03;4984733;28;20046;-78
2021/12/11 01:15:14;;;;;;;314.35;261.38;;;;;;;-143.39;100.00;64013.03;4984358;28;20113;-81
2021/12/11 01:17:47;;;;;;;252.00;224.02;;;;;;;-143.39;100.00;64013.03;4984853;28;20046;-77
2021/12/11 01:20:18;;;;;;;269.48;227.43;;;;;;;-143.39;100.00;64013.03;4986804;28;20051;-78
2021/12/11 01:22:45;;;;;;;332.80;297.30;;;;;;;-143.39;100.00;64013.03;4979067;28;20109;-79
2021/12/11 01:25:18;;;;;;;334.55;296.95;;;;;;;-143.39;100.00;64013.03;4982168;28;20049;-79
2021/12/11 01:27:51;;;;;;;362.15;279.15;;;;;;;-143.39;100.00;64013.03;4987276;28;20450;-79
2021/12/11 01:30:21;;;;;;;341.25;291.00;;;;;;;-143.39;100.00;64013.03;4986738;28;20113;-77
2021/12/11 01:32:48;;;;;;;342.92;291.30;;;;;;;-143.39;100.00;64013.03;4985279;28;20487;-79
2021/12/11 01:35:17;;;;;;;317.38;284.60;;;;;;;-143.39;100.00;64013.03;4981750;28;20047;-77
2021/12/11 01:37:44;;;;;;;343.42;306.35;;;;;;;-143.39;100.00;64013.03;4986899;28;20065;-77
2021/12/11 01:40:15;;;;;;;357.75;319.80;;;;;;;-143.39;100.00;64013.03;4983907;28;20042;-78
2021/12/11 01:42:42;;;;;;;378.58;266.33;;;;;;;-143.39;100.00;64013.03;4986031;28;20054;-81
2021/12/11 01:45:12;;;;;;;353.60;274.83;;;;;;;-143.39;100.00;64013.03;4985737;28;20106;-78
2021/12/11 01:47:43;;;;;;;391.13;271.33;;;;;;;-143.39;100.00;64013.03;4984130;28;20124;-78
2021/12/11 01:50:15;;;;;;;336.65;289.10;;;;;;;-143.39;100.00;64013.03;4984063;28;20471;-82
2021/12/11 01:52:47;;;;;;;401.38;297.65;;;;;;;-143.39;100.00;64013.03;4991285;28;20058;-77
2021/12/11 01:55:31;;;;;;;360.30;306.35;;;;;;;-143.39;100.00;64013.03;4983016;28;20050;-77
2021/12/11 01:57:59;;;;;;;424.00;296.00;;;;;;;-143.39;100.00;64013.03;4984831;28;20057;-77
2021/12/11 02:00:30;;;;;;;406.60;316.23;;;;;;;-143.39;100.00;64013.03;4982334;28;20065;-77
2021/12/11 02:03:00;;;;;;;289.43;259.10;;;;;;;-143.39;100.00;64013.03;4985363;28;20138;-77
2021/12/11 02:05:30;;;;;;;340.08;302.70;;;;;;;-143.39;100.00;64013.03;4983139;28;20371;-77
2021/12/11 02:08:05;;;;;;;273.50;242.98;;;;;;;-143.39;100.00;64013.03;4991663;28;20104;-79
2021/12/11 02:10:36;;;;;;;323.85;271.20;;;;;;;-143.39;100.00;64013.03;4983734;28;20054;-78
2021/12/11 02:13:07;;;;;;;383.40;299.87;;;;;;;-143.39;100.00;64013.03;4981819;28;20491;-79
2021/12/11 02:15:42;;;;;;;361.80;296.50;;;;;;;-143.39;100.00;64013.03;4989717;28;20046;-79
2021/12/11 02:18:13;;;;;;;360.73;309.92;;;;;;;-143.39;100.00;64013.03;4983656;28;20104;-78
2021/12/11 02:20:45;;;;;;;357.25;293.38;;;;;;;-143.39;100.00;64013.03;4985774;28;20066;-80
2021/12/11 02:23:14;;;;;;;373.17;283.60;;;;;;;-143.39;100.00;64013.03;4990046;28;20050;-80
2021/12/11 02:25:46;;;;;;;613.67;419.67;;;;;;;-143.39;100.00;64013.03;4986856;28;20050;-80
2021/12/11 02:28:16;;;;;;;544.35;365.52;;;;;;;-143.39;100.00;64013.03;4985748;28;20105;-79
2021/12/11 02:30:49;;;;;;;625.88;374.77;;;;;;;-143.39;100.00;64013.03;4982523;28;20121;-78
2021/12/11 02:33:22;;;;;;;528.88;317.10;;;;;;;-143.39;100.00;64013.03;4982503;28;20133;-80
2021/12/11 02:35:51;;;;;;;;;;;;;;;-143.39;100.00;64013.03;4980860;28;20050;-80
2021/12/11 02:38:23;;;;;;;426.17;297.83;;;;;;;-143.39;100.00;64013.03;4988025;28;20008;-79
2021/12/11 02:40:54;;;;;;;433.02;296.67;;;;;;;-143.39;100.00;64013.03;4984144;28;20050;-80
2021/12/11 02:43:27;;;;;;;426.70;311.70;;;;;;;-143.39;100.00;64013.03;4983580;28;20475;-79
2021/12/11 02:46:00;;;;;;;453.73;332.55;;;;;;;-143.39;100.00;64013.03;4980170;28;20058;-80
2021/12/11 02:48:31;;;;;;;674.67;439.85;;;;;;;-143.39;100.00;64013.03;4985772;28;20384;-80
2021/12/11 02:51:05;;;;;;;400.90;319.95;;;;;;;-143.39;100.00;64013.03;4985474;28;20097;-78
2021/12/11 02:53:38;;;;;;;536.30;329.48;;;;;;;-143.39;100.00;64013.03;4989986;28;20526;-77
2021/12/11 02:56:11;;;;;;;392.83;284.23;;;;;;;-143.39;100.00;64013.03;4979675;28;20109;-77
2021/12/11 02:58:42;;;;;;;420.75;295.05;;;;;;;-143.39;100.00;64013.03;4983978;28;20054;-79
2021/12/11 03:05:09;;;;;;;420.98;307.88;;;;;;;-143.39;100.00;64013.03;4986086;28;20076;-77
2021/12/11 03:07:38;;;;;;;401.92;283.58;;;;;;;-143.39;100.00;64013.03;5000460;28;20046;-77
2021/12/11 03:10:12;;;;;;;373.85;258.75;;;;;;;-143.39;100.00;64013.03;5001766;28;20084;-77
2021/12/11 03:12:39;;;;;;;376.08;292.00;;;;;;;-143.39;100.00;64013.03;5002828;28;20050;-79
2021/12/11 03:15:08;;;;;;;402.17;325.58;;;;;;;-143.39;100.00;64013.03;5002490;28;20053;-80
2021/12/11 03:17:36;;;;;;;423.10;323.20;;;;;;;-143.39;100.00;64013.03;5001668;28;20108;-79
2021/12/11 03:20:04;;;;;;;431.65;319.20;;;;;;;-143.39;100.00;64013.03;5000872;28;20120;-77
2021/12/11 03:22:33;;;;;;;470.05;321.55;;;;;;;-143.39;100.00;64013.03;5009965;28;20068;-79
2021/12/11 03:25:02;;;;;;;436.40;342.23;;;;;;;-143.39;100.00;64013.03;4998899;28;20081;-79
2021/12/11 03:27:30;;;;;;;372.65;279.42;;;;;;;-143.39;100.00;64013.03;5002610;28;20402;-78
2021/12/11 03:29:57;;;;;;;351.85;283.20;;;;;;;-143.39;100.00;64013.03;5006789;28;20057;-79
2021/12/11 03:32:24;;;;;;;325.20;288.02;;;;;;;-143.39;100.00;64013.03;5007527;28;20072;-79
2021/12/11 03:34:51;;;;;;;566.13;336.50;;;;;;;-143.39;100.00;64013.03;5001392;28;20050;-79
2021/12/11 03:37:19;;;;;;;350.48;265.40;;;;;;;-143.39;100.00;64013.03;5002614;28;20046;-77
2021/12/11 03:39:49;;;;;;;728.67;407.42;;;;;;;-143.39;100.00;64013.03;5001174;28;20061;-78
2021/12/11 03:42:19;;;;;;;336.58;299.65;;;;;;;-143.39;100.00;64013.03;5003790;28;20054;-78
2021/12/11 03:44:47;;;;;;;307.30;248.35;;;;;;;-143.39;100.00;64013.03;5000010;28;20042;-80
2021/12/11 03:47:21;;;;;;;328.42;292.92;;;;;;;-143.39;100.00;64013.03;5000160;28;20058;-77
2021/12/11 03:49:49;;;;;;;430.02;322.35;;;;;;;-143.39;100.00;64013.03;5000340;28;20050;-78
2021/12/11 03:52:17;;;;;;;451.63;343.17;;;;;;;-143.39;100.00;64013.03;4993850;28;20487;-80
2021/12/11 03:54:48;;;;;;;443.33;342.52;;;;;;;-143.39;100.00;64013.03;5000818;28;20046;-79
2021/12/11 03:57:18;;;;;;;564.97;377.80;;;;;;;-143.39;100.00;64013.03;5000887;28;20098;-77
2021/12/11 03:59:48;;;;;;;484.60;333.00;;;;;;;-143.39;100.00;64013.03;5001272;28;20042;-80
2021/12/11 04:02:18;;;;;;;622.67;384.83;;;;;;;-143.39;100.00;64013.03;4999840;28;20406;-77
2021/12/11 04:04:47;;;;;;;422.40;324.88;;;;;;;-143.39;100.00;64013.03;5000503;28;20446;-79
2021/12/11 04:07:19;;;;;;;583.22;367.88;;;;;;;-143.39;100.00;64013.03;4993356;28;20054;-79
2021/12/11 04:09:46;;;;;;;640.20;379.53;;;;;;;-143.39;100.00;64013.03;5001021;28;20448;-77
2021/12/11 04:12:15;;;;;;;294.27;260.40;;;;;;;-143.39;100.00;64013.03;5001340;28;20461;-79
2021/12/11 04:14:45;;;;;;;303.27;274.25;;;;;;;-143.39;100.00;64013.03;5002248;28;20474;-78
2021/12/11 04:17:18;;;;;;;289.45;263.13;;;;;;;-143.39;100.00;64013.03;5000260;28;20116;-78
2021/12/11 04:19:46;;;;;;;398.90;295.35;;;;;;;-143.39;100.00;64013.03;5000827;28;20046;-77
2021/12/11 04:22:13;;;;;;;296.95;266.02;;;;;;;-143.39;100.00;64013.03;5010922;28;20124;-79
2021/12/11 04:24:44;;;;;;;296.23;250.30;;;;;;;-143.39;100.00;64013.03;5001461;28;20120;-77
2021/12/11 04:27:14;;;;;;;298.02;271.02;;;;;;;-143.39;100.00;64013.03;4999936;28;20050;-79
2021/12/11 04:29:42;;;;;;;302.20;276.55;;;;;;;-143.39;100.00;64013.03;5009774;28;20049;-77
2021/12/11 04:32:10;;;;;;;283.23;256.38;;;;;;;-143.39;100.00;64013.03;5000642;28;20045;-80
2021/12/11 04:34:38;;;;;;;297.42;266.08;;;;;;;-143.39;100.00;64013.03;5000120;28;20058;-79
2021/12/11 04:37:13;;;;;;;329.40;294.20;;;;;;;-143.39;100.00;64013.03;5002438;28;20042;-78
2021/12/11 04:39:41;;;;;;;321.90;271.08;;;;;;;-143.39;100.00;64013.03;5001217;28;20565;-79
2021/12/11 04:42:18;;;;;;;254.85;230.77;;;;;;;-143.39;100.00;64013.03;5000541;28;20054;-78
2021/12/11 04:44:47;;;;;;;243.55;219.65;;;;;;;-143.39;100.00;64013.03;5004071;28;20046;-79
2021/12/11 04:47:29;;;;;;;294.13;269.70;;;;;;;-143.39;100.00;64013.03;5000129;28;20046;-77
2021/12/11 04:50:03;;;;;;;242.15;220.48;;;;;;;-143.39;100.00;64013.03;4999962;28;20088;-79
2021/12/11 04:52:40;;;;;;;277.20;254.23;;;;;;;-143.39;100.00;64013.03;5008684;28;20046;-79
2021/12/11 04:55:21;;;;;;;298.38;274.45;;;;;;;-143.39;100.00;64013.03;5004858;28;20076;-79
2021/12/11 05:00:42;;;;;;;268.17;243.70;;;;;;;-143.39;100.00;64013.03;4965396;28;20215;-78
2021/12/11 05:03:48;;;;;;;304.02;274.90;;;;;;;-143.39;100.00;64013.03;5001912;28;20407;-79
2021/12/11 05:06:42;;;;;;;274.83;250.70;;;;;;;-143.39;100.00;64013.03;4992466;28;20430;-79
2021/12/11 05:09:35;;;;;;;288.23;263.33;;;;;;;-143.39;100.00;64013.03;4997837;28;20046;-77
2021/12/11 05:12:18;;;;;;;243.70;219.20;;;;;;;-143.39;100.00;64013.03;4999883;28;20080;-80
2021/12/11 05:14:46;;;;;;;273.80;204.52;;;;;;;-143.39;100.00;64013.03;4999824;28;20086;-77
2021/12/11 05:17:14;;;;;;;279.90;232.10;;;;;;;-143.39;100.00;64013.03;4999675;28;20050;-77
2021/12/11 05:19:41;;;;;;;291.15;262.63;;;;;;;-143.39;100.00;64013.03;5000635;28;20061;-79
2021/12/11 05:22:11;;;;;;;288.38;256.95;;;;;;;-143.39;100.00;64013.03;5009655;28;20050;-77
2021/12/11 05:24:40;;;;;;;360.75;283.52;;;;;;;-143.39;100.00;64013.03;5002668;28;20046;-79
2021/12/11 05:27:07;;;;;;;411.17;297.38;;;;;;;-143.39;100.00;64013.03;5001076;28;20046;-79
2021/12/11 05:29:35;;;;;;;401.95;282.42;;;;;;;-143.39;100.00;64013.03;5011685;28;20054;-79
2021/12/11 05:32:06;;;;;;;262.15;221.40;;;;;;;-143.39;100.00;64013.03;5002789;28;20109;-79
2021/12/11 05:34:33;;;;;;;249.40;223.80;;;;;;;-143.39;100.00;64013.03;5001267;28;20050;-77
2021/12/11 05:37:01;;;;;;;269.23;227.65;;;;;;;-143.39;100.00;64013.03;5011277;28;20116;-79
2021/12/11 05:39:29;;;;;;;237.75;169.73;;;;;;;-143.39;100.00;64013.03;5007903;28;20061;-79
2021/12/11 05:41:56;;;;;;;240.95;196.90;;;;;;;-143.39;100.00;64013.03;5008602;28;20046;-79
2021/12/11 05:44:23;;;;;;;198.70;178.55;;;;;;;-143.39;100.00;64013.03;5008113;28;20509;-78
2021/12/11 05:46:52;;;;;;;247.48;182.73;;;;;;;-143.39;100.00;64013.03;5007359;28;20058;-78
2021/12/11 05:49:19;;;;;;;330.10;211.25;;;;;;;-143.39;100.00;64013.03;5002115;28;20042;-78
2021/12/11 05:51:49;;;;;;;229.05;205.50;;;;;;;-143.39;100.00;64013.03;5010553;28;20049;-79
2021/12/11 05:54:21;;;;;;;509.00;285.92;;;;;;;-143.39;100.00;64013.03;5002364;28;20046;-78
2021/12/11 05:56:53;;;;;;;307.00;219.20;;;;;;;-143.39;100.00;64013.03;5013559;28;20065;-79
2021/12/11 05:59:20;;;;;;;201.15;181.25;;;;;;;-143.39;100.00;64013.03;5003339;28;20053;-78
2021/12/11 06:01:51;;;;;;;186.95;169.52;;;;;;;-143.39;100.00;64013.03;5003547;28;20108;-79
2021/12/11 06:04:21;;;;;;;184.40;167.07;;;;;;;-143.39;100.00;64013.03;5002374;28;20502;-80
2021/12/11 06:06:49;;;;;;;186.38;158.98;;;;;;;-143.39;100.00;64013.03;5004485;28;20123;-78
2021/12/11 06:09:18;;;;;;;210.98;161.23;;;;;;;-143.39;100.00;64013.03;5002873;28;20108;-78
2021/12/11 06:11:50;;;;;;;152.20;138.65;;;;;;;-143.39;100.00;64013.03;5000070;28;20467;-79
2021/12/11 06:14:18;;;;;;;160.43;145.52;;;;;;;-143.39;100.00;64013.03;5004355;28;20058;-78
2021/12/11 06:16:45;;;;;;;140.02;127.18;;;;;;;-143.39;100.00;64013.03;5003995;28;20054;-77
2021/12/11 06:19:12;;;;;;;132.38;119.88;;;;;;;-143.39;100.00;64013.03;5003227;28;20115;-76
2021/12/11 06:21:39;;;;;;;125.65;113.25;;;;;;;-143.39;100.00;64013.03;5001930;28;20128;-79
2021/12/11 06:24:08;;;;;;;127.20;115.13;;;;;;;-143.39;100.00;64013.03;4998928;28;20614;-80
2021/12/11 06:26:35;;;;;;;121.50;109.43;;;;;;;-143.39;100.00;64013.03;4998788;28;20050;-78
2021/12/11 06:30:30;;;;;;;133.15;120.07;;;;;;;1.43;100.00;100520.00;4642320;27;8038663;-80
2021/12/11 06:32:57;;;;;;;126.63;113.00;;;;;;;1.40;100.00;100530.78;5051848;28;20056;-80
2021/12/11 06:35:30;;;;;;;120.40;107.68;;;;;;;1.53;100.00;100520.72;5063479;28;20056;-82
2021/12/11 06:37:57;;;;;;;130.35;115.90;;;;;;;1.59;100.00;100526.16;5063234;28;20052;-80
2021/12/11 06:40:26;;;;;;;140.95;125.63;;;;;;;1.54;100.00;100527.59;5062724;28;20110;-78
2021/12/11 06:42:54;;;;;;;143.27;127.78;;;;;;;1.72;100.00;100533.63;5000728;28;20106;-79
2021/12/11 06:45:25;;;;;;;143.40;127.88;;;;;;;1.73;100.00;100527.44;5057039;28;20076;-78
2021/12/11 06:47:52;;;;;;;141.90;126.10;;;;;;;1.71;100.00;100539.84;5063238;28;20106;-80
2021/12/11 06:50:20;;;;;;;150.70;132.48;;;;;;;1.81;100.00;100545.78;5066188;28;20095;-78
2021/12/11 06:52:48;;;;;;;149.68;132.90;;;;;;;1.86;100.00;100542.72;5066148;28;20764;-81
2021/12/11 06:55:16;;;;;;;153.32;136.30;;;;;;;1.94;100.00;100539.34;5065433;28;20068;-79
2021/12/11 06:57:43;;;;;;;163.98;147.27;;;;;;;1.94;100.00;100537.56;5065991;28;20053;-80
2021/12/11 07:00:11;;;;;;;171.23;147.75;;;;;;;1.81;100.00;100537.13;5065909;28;20109;-79
2021/12/11 07:02:39;;;;;;;168.98;145.07;;;;;;;2.08;100.00;100528.28;5066776;28;20052;-80
2021/12/11 07:05:07;;;;;;;160.88;143.07;;;;;;;2.09;100.00;100524.72;5064294;28;20488;-79
2021/12/11 07:07:35;;;;;;;149.40;133.82;;;;;;;2.04;100.00;100538.25;5051268;28;20056;-81
2021/12/11 07:10:06;;;;;;;141.90;126.35;;;;;;;1.98;100.00;100540.69;5054335;28;20056;-80
2021/12/11 07:12:34;;;;;;;158.50;135.15;;;;;;;2.09;100.00;100544.81;5052229;28;20045;-79
2021/12/11 07:15:01;;;;;;;193.00;172.48;;;;;;;2.14;100.00;100540.78;5047955;28;20045;-80
2021/12/11 07:17:28;;;;;;;220.48;178.40;;;;;;;2.01;100.00;100540.38;5044003;28;20123;-78
2021/12/11 07:19:56;;;;;;;223.60;186.43;;;;;;;2.20;100.00;100534.91;5047320;28;20466;-78
2021/12/11 07:22:23;;;;;;;216.05;182.57;;;;;;;2.36;100.00;100526.31;5045191;28;20114;-80
2021/12/11 07:24:54;;;;;;;227.77;194.65;;;;;;;2.51;100.00;100537.00;5047667;28;20107;-80
2021/12/11 07:27:21;;;;;;;179.98;161.60;;;;;;;2.43;100.00;100544.88;5048536;28;20049;-80
2021/12/11 07:29:48;;;;;;;149.20;134.77;;;;;;;2.31;100.00;100544.31;5058214;28;20530;-81
2021/12/11 07:32:15;;;;;;;134.75;121.30;;;;;;;3.99;100.00;100545.88;5061026;28;20135;-80
2021/12/11 07:34:42;;;;;;;218.57;194.98;;;;;;;3.53;100.00;100553.47;5064531;28;20447;-77
2021/12/11 07:37:11;;;;;;;193.70;173.60;;;;;;;2.88;100.00;100551.59;5060423;28;20477;-79
2021/12/11 07:39:38;;;;;;;183.75;164.73;;;;;;;2.73;100.00;100554.00;5059148;28;20072;-79
2021/12/11 07:42:05;;;;;;;185.77;166.95;;;;;;;2.66;100.00;100569.56;5043396;28;20475;-79
2021/12/11 07:44:32;;;;;;;186.45;168.10;;;;;;;2.63;100.00;100569.88;5042319;28;20050;-79
2021/12/11 07:47:00;;;;;;;207.98;186.63;;;;;;;2.81;100.00;100571.56;5045219;28;20470;-78
2021/12/11 07:49:27;;;;;;;249.40;223.32;;;;;;;2.95;100.00;100579.63;5045120;28;20458;-79
2021/12/11 07:51:54;;;;;;;160.60;145.30;;;;;;;3.24;100.00;100575.78;5037170;28;20470;-77
2021/12/11 07:54:22;;;;;;;266.33;188.32;;;;;;;3.16;100.00;100588.88;5054215;28;20119;-76
2021/12/11 07:56:49;;;;;;;301.08;227.40;;;;;;;3.08;100.00;100584.41;5050544;28;20049;-77
2021/12/11 07:59:16;;;;;;;200.88;178.93;;;;;;;3.17;100.00;100582.63;5055155;28;20045;-77
2021/12/11 08:01:47;;;;;;;232.55;199.98;;;;;;;3.22;100.00;100585.63;5054818;28;20476;-78
2021/12/11 08:04:15;;;;;;;239.88;213.38;;;;;;;3.21;100.00;100590.03;5054512;28;20397;-75
2021/12/11 08:06:42;;;;;;;250.07;220.15;;;;;;;3.28;100.00;100582.34;5055718;28;20481;-77
2021/12/11 08:09:13;;;;;;;251.10;215.65;;;;;;;3.30;100.00;100571.66;5050810;28;20104;-77
2021/12/11 08:11:42;;;;;;;243.75;217.18;;;;;;;3.35;100.00;100575.44;5049805;28;20087;-75
2021/12/11 08:14:10;;;;;;;256.55;226.77;;;;;;;3.43;100.00;100583.34;5054767;28;20063;-76
2021/12/11 08:16:45;;;;;;;330.52;259.42;;;;;;;3.29;100.00;100593.66;5054293;28;20045;-77
2021/12/11 08:19:13;;;;;;;300.52;265.13;;;;;;;3.48;100.00;100584.66;5053146;28;20114;-76
2021/12/11 08:21:40;;;;;;;272.48;222.40;;;;;;;3.58;100.00;100585.34;5055606;28;20451;-77
2021/12/11 08:24:07;;;;;;;270.38;229.68;;;;;;;3.79;100.00;100582.22;5054563;28;20053;-77
2021/12/11 08:26:35;;;;;;;257.02;224.07;;;;;;;3.96;100.00;100581.19;5048121;28;20060;-75
2021/12/11 08:29:05;;;;;;;329.60;275.90;;;;;;;4.01;100.00;100578.91;5053539;28;20539;-78
2021/12/11 08:31:33;;;;;;;428.83;317.25;;;;;;;4.31;100.00;100577.38;5046923;28;20045;-77
2021/12/11 08:34:00;;;;;;;469.77;320.20;;;;;;;4.17;100.00;100564.91;5049668;28;20060;-78
2021/12/11 08:36:27;;;;;;;432.02;314.30;;;;;;;4.08;100.00;100579.06;5052527;28;20049;-77
2021/12/11 08:39:01;;;;;;;421.35;313.45;;;;;;;4.41;100.00;100569.28;5054360;28;20118;-80
2021/12/11 08:41:29;;;;;;;386.02;300.73;;;;;;;4.57;100.00;100573.69;5045340;28;20111;-78
2021/12/11 08:44:02;;;;;;;384.83;310.98;;;;;;;4.70;100.00;100562.63;5052632;28;20049;-78
2021/12/11 08:46:35;;;;;;;303.05;263.35;;;;;;;4.87;100.00;100543.13;5051663;28;20079;-78
2021/12/11 08:49:05;;;;;;;;;;;;;;;5.42;100.00;100552.66;5048054;28;20056;-79
2021/12/11 08:51:36;;;;;;;313.83;273.92;;;;;;;5.20;100.00;100556.09;5040602;28;19924;-80
2021/12/11 08:54:03;;;;;;;301.65;269.63;;;;;;;5.24;100.00;100537.16;5044334;28;20049;-78
2021/12/11 08:56:30;;;;;;;314.90;282.95;;;;;;;5.46;100.00;100537.31;5043686;28;20041;-78
2021/12/11 08:58:59;;;;;;;337.67;303.30;;;;;;;5.69;100.00;100545.22;5045170;28;20049;-79
2021/12/11 09:01:30;;;;;;;412.77;326.75;;;;;;;5.57;100.00;100536.06;5046484;28;20045;-77
2021/12/11 09:04:03;;;;;;;309.02;278.50;;;;;;;5.73;100.00;100543.84;5047655;28;20133;-79
2021/12/11 09:06:34;;;;;;;336.88;295.10;;;;;;;5.89;100.00;100541.03;5048989;28;20044;-80
2021/12/11 09:09:06;;;;;;;277.08;252.50;;;;;;;6.06;100.00;100540.94;5045360;28;20049;-80
2021/12/11 09:11:37;;;;;;;245.38;221.20;;;;;;;6.15;100.00;100543.28;5042731;28;20448;-78
2021/12/11 09:14:08;;;;;;;217.43;196.75;;;;;;;6.31;100.00;100529.09;5043931;28;20041;-78
2021/12/11 09:16:40;;;;;;;235.40;213.50;;;;;;;6.39;100.00;100534.31;5012017;28;20201;-79
2021/12/11 09:19:13;;;;;;;236.07;211.98;;;;;;;6.40;100.00;100528.00;5042917;28;20519;-82
2021/12/11 09:21:44;;;;;;;236.50;212.82;;;;;;;6.57;100.00;100509.34;5045714;28;20153;-78
2021/12/11 09:24:17;;;;;;;224.05;204.43;;;;;;;6.84;100.00;100497.28;5040418;28;20140;-82
2021/12/11 09:26:48;;;;;;;247.80;227.32;;;;;;;7.01;100.00;100485.47;5046695;28;20045;-79
2021/12/11 09:29:21;;;;;;;212.80;196.35;;;;;;;7.14;100.00;100486.59;5049798;28;20063;-77
2021/12/11 09:32:05;;;;;;;210.38;195.15;;;;;;;7.34;100.00;100477.03;5050763;28;20045;-79
2021/12/11 09:34:39;;;;;;;193.52;179.02;;;;;;;7.58;100.00;100467.88;5045824;28;20057;-79
2021/12/11 09:37:07;;;;;;;188.63;174.32;;;;;;;7.47;100.00;100463.91;5046479;28;20044;-79
2021/12/11 09:39:36;;;;;;;198.20;183.70;;;;;;;7.58;100.00;100457.31;5047223;28;20096;-79
2021/12/11 09:42:03;;;;;;;171.95;159.27;;;;;;;7.56;100.00;100461.94;5042791;28;20461;-79
2021/12/11 09:44:36;;;;;;;176.68;163.88;;;;;;;7.64;100.00;100477.69;5052483;28;20045;-79
2021/12/11 09:47:06;;;;;;;184.05;170.85;;;;;;;7.51;100.00;100456.44;5042505;28;20053;-77
2021/12/11 09:49:36;;;;;;;207.00;190.75;;;;;;;7.47;100.00;100458.63;5044285;28;20057;-79
2021/12/11 09:52:15;;;;;;;221.43;203.65;;;;;;;7.68;100.00;100462.25;5051055;28;20451;-78
2021/12/11 09:54:44;;;;;;;227.82;211.13;;;;;;;7.64;100.00;100459.16;5040589;28;20132;-80
2021/12/11 09:57:15;;;;;;;227.05;210.85;;;;;;;7.79;100.00;100459.06;5047483;28;20118;-79
2021/12/11 09:59:46;;;;;;;214.80;198.63;;;;;;;7.88;100.00;100449.97;5043931;28;20049;-80
2021/12/11 10:02:17;;;;;;;191.00;177.63;;;;;;;7.92;100.00;100460.97;5051034;28;20108;-79
2021/12/11 10:04:52;;;;;;;180.18;167.00;;;;;;;8.03;100.00;100458.59;5043376;28;20041;-79
2021/12/11 10:07:36;;;;;;;213.18;198.18;;;;;;;7.93;100.00;100446.75;5044830;28;20076;-79
2021/12/11 10:10:12;;;;;;;221.13;206.13;;;;;;;7.88;100.00;100441.22;5049740;28;20150;-79
2021/12/11 10:12:45;;;;;;;206.75;192.75;;;;;;;7.92;100.00;100431.88;5039046;28;20057;-79
2021/12/11 10:15:19;;;;;;;202.95;188.60;;;;;;;7.94;100.00;100441.25;5050680;28;20478;-78
2021/12/11 10:17:49;;;;;;;220.57;205.15;;;;;;;7.98;100.00;100433.75;5052184;28;20114;-78
2021/12/11 10:20:20;;;;;;;182.70;170.27;;;;;;;8.02;100.00;100437.66;5053726;28;20555;-78
2021/12/11 10:22:49;;;;;;;193.07;179.88;;;;;;;8.04;100.00;100447.00;5053748;28;20048;-78
2021/12/11 10:25:21;;;;;;;188.23;175.43;;;;;;;8.03;100.00;100426.88;5050883;28;20049;-78
2021/12/11 10:27:49;;;;;;;173.73;162.07;;;;;;;8.12;100.00;100429.34;5054523;28;20041;-81
2021/12/11 10:30:20;;;;;;;180.57;168.48;;;;;;;8.20;100.00;100430.00;5036066;28;20489;-79
2021/12/11 10:32:47;;;;;;;185.40;173.18;;;;;;;8.19;100.00;100423.06;5033863;28;20457;-78
2021/12/11 10:35:18;;;;;;;179.38;167.07;;;;;;;8.31;100.00;100420.66;5030937;28;20053;-77
2021/12/11 10:37:45;;;;;;;191.15;178.07;;;;;;;8.39;100.00;100417.88;5030045;28;20461;-78
2021/12/11 10:40:18;;;;;;;195.38;182.32;;;;;;;8.45;100.00;100418.94;5032729;28;20060;-77
2021/12/11 10:42:45;;;;;;;;;;;;;;;8.48;100.00;100416.69;5032462;28;20050;-79
2021/12/11 10:45:15;;;;;;;180.32;168.13;;;;;;;8.48;100.00;100407.94;5032233;28;19921;-78
2021/12/11 10:47:47;;;;;;;175.07;162.98;;;;;;;8.53;100.00;100396.75;5031900;28;20114;-80
2021/12/11 10:50:17;;;;;;;;;;;;;;;8.59;100.00;100415.28;5032853;28;20119;-80
2021/12/11 10:52:44;;;;;;;150.20;139.80;;;;;;;8.63;100.00;100398.00;5029916;28;19921;-78
2021/12/11 10:55:14;;;;;;;153.82;143.70;;;;;;;8.74;100.00;100390.47;5032870;28;20536;-78
2021/12/11 10:57:41;;;;;;;133.32;124.78;;;;;;;8.84;100.00;100388.25;5026055;28;20107;-78
2021/12/11 11:00:14;;;;;;;133.60;124.45;;;;;;;8.86;100.00;100394.16;5030956;28;20057;-79
2021/12/11 11:02:44;;;;;;;138.35;129.02;;;;;;;8.69;100.00;100386.59;5029065;28;20045;-78
2021/12/11 11:05:14;;;;;;;144.90;134.77;;;;;;;8.79;100.00;100386.19;5031679;28;20089;-76
2021/12/11 11:07:43;;;;;;;152.82;142.68;;;;;;;8.80;100.00;100377.22;5031654;28;20162;-75
2021/12/11 11:10:15;;;;;;;134.50;125.50;;;;;;;8.78;100.00;100376.63;5031536;28;20138;-78